Time;durP1;ratioP1;P1;durP2;ratioP2;P2;SDS_P1;SDS_P2;PMS_P1;PMS_P2;Temp;Humidity;BMP_temperature;BMP_pressure;BME280_temperature;BME280_humidity;BME280_pressure;Samples;Min_cycle;Max_cycle;Signal;HPM_P1;HPM_P2
2023/07/26 00:02:31;;;;;;;2.08;1.83;;;;;;;;;;6255442;28;20049;-83
2023/07/26 00:05:33;;;;;;;2.00;1.65;;;;;;;;;;6255161;28;20503;-82
2023/07/26 00:08:35;;;;;;;4.18;2.08;;;;;;;;;;6237699;28;20067;-82
2023/07/26 00:11:36;;;;;;;13.18;2.30;;;;;;;;;;6234594;28;20065;-81
2023/07/26 00:14:38;;;;;;;2.67;2.00;;;;;;;;;;6254789;28;20036;-83
2023/07/26 00:17:40;;;;;;;5.00;2.10;;;;;;;;;;6252980;28;20049;-82
2023/07/26 00:20:41;;;;;;;3.30;2.08;;;;;;;;;;6247591;28;20048;-81
2023/07/26 00:23:43;;;;;;;4.60;2.20;;;;;;;;;;6237899;28;20064;-82
2023/07/26 00:26:44;;;;;;;2.47;1.90;;;;;;;;;;6234544;28;20119;-82
2023/07/26 00:29:46;;;;;;;2.20;1.73;;;;;;;;;;6251560;28;20041;-82
2023/07/26 00:32:48;;;;;;;2.97;1.90;;;;;;;;;;6241506;28;20399;-83
2023/07/26 00:35:50;;;;;;;2.90;1.88;;;;;;;;;;6235062;28;20100;-82
2023/07/26 00:38:51;;;;;;;1.92;1.70;;;;;;;;;;6233753;28;20040;-81
2023/07/26 00:41:53;;;;;;;2.03;1.80;;;;;;;;;;6222156;28;20541;-83
2023/07/26 00:44:54;;;;;;;4.10;1.80;;;;;;;;;;6243196;28;20053;-82
2023/07/26 00:47:57;;;;;;;3.83;1.80;;;;;;;;;;6254287;28;20060;-82
2023/07/26 00:51:00;;;;;;;3.33;1.85;;;;;;;;;;6239560;28;20075;-82
2023/07/26 00:54:03;;;;;;;3.70;1.83;;;;;;;;;;6253758;28;20063;-82
2023/07/26 00:57:05;;;;;;;2.53;2.00;;;;;;;;;;6252189;28;20049;-82
2023/07/26 01:00:08;;;;;;;6.28;2.15;;;;;;;;;;6249334;28;20048;-80
2023/07/26 01:03:09;;;;;;;2.28;1.92;;;;;;;;;;6250976;28;20147;-82
2023/07/26 01:06:36;;;;;;;2.45;2.00;;;;;;;;;;6239227;28;20526;-80
2023/07/26 01:09:45;;;;;;;3.00;2.00;;;;;;;;;;6239524;28;20510;-81
2023/07/26 01:12:54;;;;;;;2.40;2.20;;;;;;;;;;6231551;28;20055;-82
2023/07/26 01:15:56;;;;;;;2.72;2.08;;;;;;;;;;6254241;28;20499;-80
2023/07/26 01:19:00;;;;;;;4.30;1.90;;;;;;;;;;6223401;28;20454;-82
2023/07/26 01:22:02;;;;;;;3.35;2.40;;;;;;;;;;6259898;28;20041;-81
2023/07/26 01:25:04;;;;;;;2.83;1.88;;;;;;;;;;6286971;28;20248;-81
2023/07/26 01:28:06;;;;;;;2.67;1.90;;;;;;;;;;6255390;28;20049;-80
2023/07/26 01:31:09;;;;;;;2.90;2.00;;;;;;;;;;6243253;28;20052;-81
2023/07/26 01:34:11;;;;;;;3.00;1.83;;;;;;;;;;6241119;28;20195;-81
2023/07/26 01:37:14;;;;;;;5.50;2.25;;;;;;;;;;6254390;28;20037;-83
2023/07/26 01:40:17;;;;;;;7.47;2.33;;;;;;;;;;6252771;28;20041;-82
2023/07/26 01:43:18;;;;;;;2.40;2.20;;;;;;;;;;6230249;28;20451;-82
2023/07/26 01:46:20;;;;;;;3.55;2.10;;;;;;;;;;6240154;28;20082;-82
2023/07/26 01:49:22;;;;;;;2.38;2.17;;;;;;;;;;6255968;28;20053;-81
2023/07/26 01:52:23;;;;;;;2.90;2.60;;;;;;;;;;6256215;28;20056;-82
2023/07/26 01:55:25;;;;;;;2.22;1.92;;;;;;;;;;6238555;28;20114;-81
2023/07/26 01:58:27;;;;;;;2.85;2.10;;;;;;;;;;6251090;28;20558;-82
2023/07/26 02:01:29;;;;;;;2.97;2.25;;;;;;;;;;6236727;28;20041;-83
2023/07/26 02:04:31;;;;;;;2.20;2.00;;;;;;;;;;6249128;28;20091;-82
2023/07/26 02:07:33;;;;;;;3.47;2.28;;;;;;;;;;6241051;28;20041;-83
2023/07/26 02:10:35;;;;;;;3.60;2.25;;;;;;;;;;6224378;28;20059;-83
2023/07/26 02:13:37;;;;;;;3.17;2.10;;;;;;;;;;6232110;28;20453;-83
2023/07/26 02:16:39;;;;;;;4.25;2.58;;;;;;;;;;6238236;28;20041;-83
2023/07/26 02:19:40;;;;;;;2.40;2.20;;;;;;;;;;6254511;28;20052;-82
2023/07/26 02:22:42;;;;;;;4.40;2.72;;;;;;;;;;6253531;28;20539;-83
2023/07/26 02:25:44;;;;;;;3.72;2.50;;;;;;;;;;6259646;28;20060;-80
2023/07/26 02:28:47;;;;;;;2.95;2.45;;;;;;;;;;6257704;28;20051;-81
2023/07/26 02:31:48;;;;;;;2.88;2.40;;;;;;;;;;6234027;28;20719;-81
2023/07/26 02:34:50;;;;;;;4.07;2.35;;;;;;;;;;6235189;28;20530;-80
2023/07/26 02:37:52;;;;;;;2.78;2.58;;;;;;;;;;6237244;28;20068;-81
2023/07/26 02:40:54;;;;;;;4.95;2.22;;;;;;;;;;6239237;28;20573;-81
2023/07/26 02:43:55;;;;;;;2.75;2.10;;;;;;;;;;6266442;28;20037;-80
2023/07/26 02:46:57;;;;;;;4.03;2.10;;;;;;;;;;6265113;28;20202;-81
2023/07/26 02:50:04;;;;;;;4.25;2.70;;;;;;;;;;6247954;28;20045;-81
2023/07/26 02:53:07;;;;;;;3.97;2.28;;;;;;;;;;6238086;28;20161;-81
2023/07/26 02:56:09;;;;;;;5.22;2.55;;;;;;;;;;6249635;28;20538;-80
2023/07/26 02:59:11;;;;;;;3.08;2.40;;;;;;;;;;6230189;28;20050;-81
2023/07/26 03:02:12;;;;;;;3.83;2.40;;;;;;;;;;6234848;28;20080;-81
2023/07/26 03:05:14;;;;;;;4.00;2.40;;;;;;;;;;6234345;28;20049;-80
2023/07/26 03:08:16;;;;;;;3.63;2.97;;;;;;;;;;6230276;28;20042;-81
2023/07/26 03:11:17;;;;;;;5.65;2.80;;;;;;;;;;6231939;28;20045;-80
2023/07/26 03:14:19;;;;;;;4.53;2.78;;;;;;;;;;6249023;28;20522;-81
2023/07/26 03:17:21;;;;;;;3.60;2.55;;;;;;;;;;6233539;28;20072;-81
2023/07/26 03:20:24;;;;;;;4.95;2.97;;;;;;;;;;6246190;28;20050;-80
2023/07/26 03:23:27;;;;;;;3.92;2.75;;;;;;;;;;6250927;28;20048;-81
2023/07/26 03:26:29;;;;;;;4.07;2.83;;;;;;;;;;6230923;28;20041;-81
2023/07/26 03:29:31;;;;;;;3.85;3.00;;;;;;;;;;6220505;28;20045;-81
2023/07/26 03:32:33;;;;;;;6.03;3.45;;;;;;;;;;6239455;28;20411;-80
2023/07/26 03:35:34;;;;;;;3.85;3.10;;;;;;;;;;6240457;28;20519;-80
2023/07/26 03:38:37;;;;;;;6.57;3.63;;;;;;;;;;6245909;28;20060;-80
2023/07/26 03:41:40;;;;;;;8.60;5.25;;;;;;;;;;6248327;28;20529;-80
2023/07/26 03:44:41;;;;;;;8.82;5.20;;;;;;;;;;6240395;28;20045;-80
2023/07/26 03:47:43;;;;;;;10.05;5.03;;;;;;;;;;6234897;28;20060;-80
2023/07/26 03:50:45;;;;;;;8.35;4.28;;;;;;;;;;6250144;28;20033;-79
2023/07/26 03:53:47;;;;;;;5.57;3.95;;;;;;;;;;6250571;28;20052;-80
2023/07/26 03:56:48;;;;;;;6.97;4.20;;;;;;;;;;6208724;28;1083466;-80
2023/07/26 03:59:50;;;;;;;5.13;3.80;;;;;;;;;;6233491;28;20564;-80
2023/07/26 04:02:54;;;;;;;9.38;4.38;;;;;;;;;;6247831;28;20175;-80
2023/07/26 04:05:56;;;;;;;7.22;4.57;;;;;;;;;;6247248;28;20391;-80
2023/07/26 04:08:58;;;;;;;6.55;3.92;;;;;;;;;;6231553;28;20052;-81
2023/07/26 04:12:01;;;;;;;6.70;4.30;;;;;;;;;;6229598;28;20057;-82
2023/07/26 04:15:03;;;;;;;5.80;3.78;;;;;;;;;;6253846;28;20052;-79
2023/07/26 04:18:04;;;;;;;4.85;3.40;;;;;;;;;;6246511;28;20419;-79
2023/07/26 04:21:08;;;;;;;13.23;4.57;;;;;;;;;;6231509;28;20044;-77
2023/07/26 04:24:10;;;;;;;7.13;3.75;;;;;;;;;;6247794;28;20400;-78
2023/07/26 04:27:11;;;;;;;5.75;3.53;;;;;;;;;;6236266;28;20045;-79
2023/07/26 04:30:13;;;;;;;6.97;3.40;;;;;;;;;;6251926;28;20530;-79
2023/07/26 04:33:15;;;;;;;4.70;3.85;;;;;;;;;;6263904;28;20048;-77
2023/07/26 04:36:16;;;;;;;5.40;3.85;;;;;;;;;;6246579;28;20049;-79
2023/07/26 04:39:18;;;;;;;5.60;3.90;;;;;;;;;;6241010;28;20514;-78
2023/07/26 04:42:20;;;;;;;3.83;3.28;;;;;;;;;;6255959;28;20043;-79
2023/07/26 04:45:22;;;;;;;5.45;3.65;;;;;;;;;;6240033;28;20041;-78
2023/07/26 04:48:23;;;;;;;5.10;3.75;;;;;;;;;;6255048;28;20057;-77
2023/07/26 04:51:25;;;;;;;7.63;4.18;;;;;;;;;;6241930;28;20804;-79
2023/07/26 04:54:26;;;;;;;6.53;3.97;;;;;;;;;;6253353;28;20048;-78
2023/07/26 04:57:28;;;;;;;7.07;4.28;;;;;;;;;;6254093;28;20041;-78
2023/07/26 05:00:30;;;;;;;5.00;4.10;;;;;;;;;;6255619;28;20056;-77
2023/07/26 05:03:32;;;;;;;5.47;3.90;;;;;;;;;;6256582;28;20048;-78
2023/07/26 05:06:34;;;;;;;5.97;3.92;;;;;;;;;;6251256;28;20473;-78
2023/07/26 05:09:35;;;;;;;4.97;3.30;;;;;;;;;;6250954;28;20042;-78
2023/07/26 05:12:37;;;;;;;6.07;3.63;;;;;;;;;;6236465;28;20304;-79
2023/07/26 05:15:39;;;;;;;6.22;3.35;;;;;;;;;;6256290;28;20045;-78
2023/07/26 05:18:40;;;;;;;5.32;3.28;;;;;;;;;;6263612;28;20041;-77
2023/07/26 05:21:43;;;;;;;6.40;3.75;;;;;;;;;;6262445;28;20498;-77
2023/07/26 05:24:44;;;;;;;5.50;3.60;;;;;;;;;;6244111;28;20049;-77
2023/07/26 05:27:46;;;;;;;5.50;3.22;;;;;;;;;;6252978;28;20440;-77
2023/07/26 05:30:48;;;;;;;5.68;4.00;;;;;;;;;;6241445;28;20048;-78
2023/07/26 05:33:49;;;;;;;5.10;3.60;;;;;;;;;;6253093;28;20057;-78
2023/07/26 05:36:51;;;;;;;5.57;3.83;;;;;;;;;;6235278;28;20048;-78
2023/07/26 05:39:53;;;;;;;3.58;3.28;;;;;;;;;;6236264;28;20044;-79
2023/07/26 05:42:54;;;;;;;3.88;3.47;;;;;;;;;;6249185;28;20099;-78
2023/07/26 05:46:01;;;;;;;4.20;3.28;;;;;;;;;;6252130;28;20037;-79
2023/07/26 05:49:03;;;;;;;7.43;3.65;;;;;;;;;;6253401;28;20044;-77
2023/07/26 05:52:05;;;;;;;7.60;3.50;;;;;;;;;;6236409;28;20415;-78
2023/07/26 05:55:07;;;;;;;5.07;4.07;;;;;;;;;;6249748;28;20680;-79
2023/07/26 05:58:09;;;;;;;4.95;3.90;;;;;;;;;;6250907;28;20122;-79
2023/07/26 06:01:10;;;;;;;5.15;3.55;;;;;;;;;;6253958;28;20102;-80
2023/07/26 06:04:12;;;;;;;3.90;3.03;;;;;;;;;;6262994;28;20049;-77
2023/07/26 06:07:16;;;;;;;6.40;3.83;;;;;;;;;;6258814;28;20041;-79
2023/07/26 06:10:18;;;;;;;4.93;3.30;;;;;;;;;;6237539;28;20044;-80
2023/07/26 06:13:19;;;;;;;4.85;3.38;;;;;;;;;;6252836;28;20052;-79
2023/07/26 06:16:21;;;;;;;5.07;3.13;;;;;;;;;;6251988;28;20048;-79
2023/07/26 06:19:23;;;;;;;4.50;3.13;;;;;;;;;;6250753;28;20045;-80
2023/07/26 06:22:25;;;;;;;5.03;3.35;;;;;;;;;;6235723;28;20470;-79
2023/07/26 06:25:27;;;;;;;4.78;3.42;;;;;;;;;;6241299;28;20048;-78
2023/07/26 06:28:29;;;;;;;6.25;3.55;;;;;;;;;;6250353;28;20488;-79
2023/07/26 06:31:30;;;;;;;4.85;3.22;;;;;;;;;;6250997;28;20053;-79
2023/07/26 06:34:32;;;;;;;6.03;3.28;;;;;;;;;;6253699;28;20082;-79
2023/07/26 06:37:35;;;;;;;5.70;3.55;;;;;;;;;;6266669;28;20029;-79
2023/07/26 06:40:37;;;;;;;4.53;3.05;;;;;;;;;;6259929;28;20072;-79
2023/07/26 06:43:38;;;;;;;4.78;3.38;;;;;;;;;;6247922;28;20127;-79
2023/07/26 06:46:40;;;;;;;3.60;2.95;;;;;;;;;;6216861;28;20056;-79
2023/07/26 06:49:42;;;;;;;4.65;2.95;;;;;;;;;;6247194;28;20041;-78
2023/07/26 06:52:44;;;;;;;5.13;3.50;;;;;;;;;;6244861;28;20415;-79
2023/07/26 06:55:45;;;;;;;5.78;3.35;;;;;;;;;;6239452;28;20044;-77
2023/07/26 06:58:47;;;;;;;4.50;3.03;;;;;;;;;;6242623;28;20056;-78
2023/07/26 07:01:49;;;;;;;6.28;3.65;;;;;;;;;;6247299;28;20079;-78
2023/07/26 07:04:50;;;;;;;5.15;3.25;;;;;;;;;;6252920;28;20044;-77
2023/07/26 07:07:52;;;;;;;4.13;2.90;;;;;;;;;;6246947;28;20049;-80
2023/07/26 07:10:54;;;;;;;6.47;2.97;;;;;;;;;;6226406;28;20082;-78
2023/07/26 07:13:56;;;;;;;5.82;3.08;;;;;;;;;;6232593;28;20063;-78
2023/07/26 07:16:58;;;;;;;3.53;3.00;;;;;;;;;;6238877;28;20052;-79
2023/07/26 07:20:00;;;;;;;3.83;3.10;;;;;;;;;;6251793;28;20087;-79
2023/07/26 07:23:01;;;;;;;3.30;2.85;;;;;;;;;;6248996;28;20045;-79
2023/07/26 07:26:03;;;;;;;4.43;2.85;;;;;;;;;;6254264;28;20056;-78
2023/07/26 07:29:05;;;;;;;4.90;3.13;;;;;;;;;;6248458;28;20041;-80
2023/07/26 07:32:07;;;;;;;3.42;2.80;;;;;;;;;;6251718;28;20123;-80
2023/07/26 07:35:22;;;;;;;3.88;2.95;;;;;;;;;;6254492;28;20048;-80
2023/07/26 07:38:23;;;;;;;4.18;2.97;;;;;;;;;;6257803;28;20052;-79
2023/07/26 07:41:25;;;;;;;4.28;2.88;;;;;;;;;;6251227;28;20060;-78
2023/07/26 07:44:30;;;;;;;4.28;2.55;;;;;;;;;;6258419;28;20041;-80
2023/07/26 07:47:32;;;;;;;3.40;2.95;;;;;;;;;;6262661;28;20568;-79
2023/07/26 07:50:34;;;;;;;5.13;3.20;;;;;;;;;;6259744;28;20045;-80
2023/07/26 07:53:36;;;;;;;5.18;3.30;;;;;;;;;;6246044;28;20060;-80
2023/07/26 07:56:38;;;;;;;5.63;3.53;;;;;;;;;;6261052;28;20072;-80
2023/07/26 07:59:39;;;;;;;5.95;2.63;;;;;;;;;;6244966;28;20052;-80
2023/07/26 08:02:41;;;;;;;5.20;3.65;;;;;;;;;;6261123;28;20056;-78
2023/07/26 08:05:43;;;;;;;3.50;3.20;;;;;;;;;;6260039;28;20064;-79
2023/07/26 08:08:45;;;;;;;3.95;2.70;;;;;;;;;;6261655;28;20048;-80
2023/07/26 08:11:46;;;;;;;5.15;3.13;;;;;;;;;;6255217;28;20052;-80
2023/07/26 08:14:51;;;;;;;3.60;2.63;;;;;;;;;;6259960;28;20045;-80
2023/07/26 08:17:53;;;;;;;4.75;2.60;;;;;;;;;;6259762;28;20053;-79
2023/07/26 08:20:55;;;;;;;5.45;2.70;;;;;;;;;;6258357;28;20057;-80
2023/07/26 08:23:56;;;;;;;4.10;2.67;;;;;;;;;;6260928;28;20045;-78
2023/07/26 08:26:58;;;;;;;4.03;2.80;;;;;;;;;;6241799;28;20075;-78
2023/07/26 08:30:00;;;;;;;6.57;2.83;;;;;;;;;;6242085;28;20709;-77
2023/07/26 08:33:02;;;;;;;3.30;2.65;;;;;;;;;;6259874;28;20076;-78
2023/07/26 08:36:04;;;;;;;4.28;2.50;;;;;;;;;;6256524;28;20041;-77
2023/07/26 08:39:06;;;;;;;5.30;2.63;;;;;;;;;;6258507;28;20064;-79
2023/07/26 08:42:12;;;;;;;3.13;2.30;;;;;;;;;;6257331;28;20041;-80
2023/07/26 08:45:15;;;;;;;3.55;2.28;;;;;;;;;;6239872;28;20718;-78
2023/07/26 08:48:18;;;;;;;3.17;2.25;;;;;;;;;;6252166;28;20137;-77
2023/07/26 08:51:20;;;;;;;3.60;1.98;;;;;;;;;;6254570;28;20554;-80
2023/07/26 08:54:22;;;;;;;2.17;1.97;;;;;;;;;;6255254;28;20049;-80
2023/07/26 08:57:24;;;;;;;4.78;1.80;;;;;;;;;;6249975;28;20064;-78
2023/07/26 09:00:26;;;;;;;2.67;1.92;;;;;;;;;;6254280;28;20041;-80
2023/07/26 09:03:28;;;;;;;2.65;1.73;;;;;;;;;;6238152;28;20178;-80
2023/07/26 09:06:38;;;;;;;3.20;1.93;;;;;;;;;;6253154;28;20696;-78
2023/07/26 09:09:40;;;;;;;4.22;2.00;;;;;;;;;;6252496;28;20045;-78
2023/07/26 09:12:41;;;;;;;1.90;1.70;;;;;;;;;;6239788;28;20518;-78
2023/07/26 09:15:43;;;;;;;5.15;1.90;;;;;;;;;;6255102;28;20044;-78
2023/07/26 09:19:04;;;;;;;2.40;2.20;;;;;;;;;;6253862;28;20415;-79
2023/07/26 09:22:08;;;;;;;4.43;2.63;;;;;;;;;;6248844;28;20448;-79
2023/07/26 09:25:10;;;;;;;2.30;2.10;;;;;;;;;;6254941;28;20101;-80
2023/07/26 09:28:13;;;;;;;5.35;2.28;;;;;;;;;;6249468;28;20041;-80
2023/07/26 09:31:28;;;;;;;4.32;2.38;;;;;;;;;;6250117;28;20073;-78
2023/07/26 09:34:30;;;;;;;3.95;2.20;;;;;;;;;;6240566;28;20045;-80
2023/07/26 09:37:36;;;;;;;4.13;2.60;;;;;;;;;;6251094;28;20431;-79
2023/07/26 09:40:39;;;;;;;3.45;2.40;;;;;;;;;;6231440;28;20060;-78
2023/07/26 09:43:41;;;;;;;4.00;2.47;;;;;;;;;;6230566;28;20116;-79
2023/07/26 09:46:53;;;;;;;2.97;2.55;;;;;;;;;;6258438;28;20044;-77
2023/07/26 09:49:55;;;;;;;2.78;2.55;;;;;;;;;;6257281;28;20064;-77
2023/07/26 09:53:23;;;;;;;2.70;2.50;;;;;;;;;;6242760;28;20558;-78
2023/07/26 09:56:31;;;;;;;3.47;2.70;;;;;;;;;;6233636;28;20045;-78
2023/07/26 09:59:35;;;;;;;2.25;2.03;;;;;;;;;;6254934;28;20041;-77
2023/07/26 10:02:38;;;;;;;3.95;2.20;;;;;;;;;;6235152;28;20053;-81
2023/07/26 10:05:47;;;;;;;2.25;1.80;;;;;;;;;;6248112;28;20116;-80
2023/07/26 10:08:49;;;;;;;2.50;1.77;;;;;;;;;;6254799;28;20052;-79
2023/07/26 10:11:52;;;;;;;2.73;1.93;;;;;;;;;;6250107;28;20041;-76
2023/07/26 10:14:56;;;;;;;2.47;2.10;;;;;;;;;;6254687;28;20060;-79
2023/07/26 10:17:58;;;;;;;2.70;1.63;;;;;;;;;;6251562;28;20399;-77
2023/07/26 10:21:01;;;;;;;2.60;1.98;;;;;;;;;;6252585;28;20056;-79
2023/07/26 10:24:04;;;;;;;2.35;1.63;;;;;;;;;;6249715;28;20044;-79
2023/07/26 10:27:06;;;;;;;1.95;1.50;;;;;;;;;;6251427;28;20064;-80
2023/07/26 10:30:09;;;;;;;1.67;1.50;;;;;;;;;;6256709;28;20033;-80
2023/07/26 10:33:12;;;;;;;2.13;1.60;;;;;;;;;;6241477;28;20069;-80
2023/07/26 10:36:15;;;;;;;1.98;1.60;;;;;;;;;;6251308;28;20463;-79
2023/07/26 10:39:27;;;;;;;;;;;;;;;;;;6255469;28;20347;-78
2023/07/26 10:42:29;;;;;;;2.03;1.55;;;;;;;;;;6253389;28;19924;-80
2023/07/26 10:45:43;;;;;;;3.50;1.80;;;;;;;;;;6241214;28;20111;-80
2023/07/26 10:48:47;;;;;;;2.72;1.70;;;;;;;;;;6231706;28;20064;-81
2023/07/26 10:51:50;;;;;;;2.45;2.00;;;;;;;;;;6258159;28;20056;-81
2023/07/26 10:54:52;;;;;;;3.13;2.10;;;;;;;;;;6261262;28;20081;-81
2023/07/26 10:57:57;;;;;;;4.20;1.67;;;;;;;;;;6260711;28;20572;-81
2023/07/26 11:01:03;;;;;;;2.45;1.35;;;;;;;;;;6258523;28;20527;-78
2023/07/26 11:04:29;;;;;;;3.95;1.70;;;;;;;;;;6263346;28;20037;-80
2023/07/26 11:07:51;;;;;;;2.22;1.70;;;;;;;;;;6262287;28;20036;-81
2023/07/26 11:10:53;;;;;;;2.17;1.58;;;;;;;;;;6245050;28;20045;-81
2023/07/26 11:13:57;;;;;;;1.40;1.30;;;;;;;;;;6260135;28;20049;-79
2023/07/26 11:17:08;;;;;;;3.40;1.50;;;;;;;;;;6244309;28;20049;-81
2023/07/26 11:20:13;;;;;;;1.40;1.30;;;;;;;;;;6237293;28;20048;-79
2023/07/26 11:23:19;;;;;;;6.50;2.97;;;;;;;;;;6257674;28;20056;-79
2023/07/26 11:26:21;;;;;;;2.90;2.03;;;;;;;;;;6256187;28;20063;-79
2023/07/26 11:29:22;;;;;;;2.45;1.83;;;;;;;;;;6237288;28;20049;-79
2023/07/26 11:32:25;;;;;;;3.35;2.20;;;;;;;;;;6244149;28;20049;-76
2023/07/26 11:35:38;;;;;;;2.92;1.98;;;;;;;;;;6240859;28;20499;-79
2023/07/26 11:38:43;;;;;;;;;;;;;;;;;;6241485;28;20465;-82
2023/07/26 11:41:44;;;;;;;3.53;2.08;;;;;;;;;;6254438;28;19932;-81
2023/07/26 11:44:47;;;;;;;2.42;1.77;;;;;;;;;;6259360;28;20049;-79
2023/07/26 11:47:50;;;;;;;3.47;1.77;;;;;;;;;;6245289;28;20521;-78
2023/07/26 11:50:55;;;;;;;3.03;1.83;;;;;;;;;;6239722;28;20060;-79
2023/07/26 11:53:57;;;;;;;2.35;1.90;;;;;;;;;;6240939;28;20517;-79
2023/07/26 11:56:58;;;;;;;2.22;1.60;;;;;;;;;;6253266;28;20064;-78
2023/07/26 12:00:04;;;;;;;2.53;1.40;;;;;;;;;;6238696;28;20046;-79
2023/07/26 12:03:15;;;;;;;2.90;1.63;;;;;;;;;;6240081;28;20116;-80
2023/07/26 12:06:19;;;;;;;5.03;1.55;;;;;;;;;;6251688;28;20051;-79
2023/07/26 12:09:21;;;;;;;3.38;1.40;;;;;;;;;;6231826;28;20045;-78
2023/07/26 12:12:23;;;;;;;3.92;1.42;;;;;;;;;;6240173;28;20041;-80
2023/07/26 12:15:25;;;;;;;1.98;1.48;;;;;;;;;;6240987;28;20744;-79
2023/07/26 12:18:27;;;;;;;3.30;1.80;;;;;;;;;;6244554;28;20597;-79
2023/07/26 12:21:30;;;;;;;5.20;1.70;;;;;;;;;;6241114;28;20055;-80
2023/07/26 12:24:31;;;;;;;3.58;1.60;;;;;;;;;;6254623;28;20576;-79
2023/07/26 12:27:34;;;;;;;5.40;1.52;;;;;;;;;;6235932;28;20049;-80
2023/07/26 12:30:35;;;;;;;3.03;1.70;;;;;;;;;;6253658;28;20060;-79
2023/07/26 12:33:58;;;;;;;2.25;1.40;;;;;;;;;;6240439;28;20046;-80
2023/07/26 12:37:00;;;;;;;3.50;1.65;;;;;;;;;;6232935;28;20435;-81
2023/07/26 12:40:02;;;;;;;3.53;1.63;;;;;;;;;;6247702;28;20037;-80
2023/07/26 12:43:24;;;;;;;2.03;1.70;;;;;;;;;;6234354;28;20080;-80
2023/07/26 12:46:26;;;;;;;1.85;1.25;;;;;;;;;;6251922;28;20043;-80
2023/07/26 12:49:27;;;;;;;2.45;1.17;;;;;;;;;;6252612;28;20045;-81
2023/07/26 12:52:29;;;;;;;3.22;1.60;;;;;;;;;;6250373;28;20570;-81
2023/07/26 12:55:31;;;;;;;2.33;1.30;;;;;;;;;;6254850;28;20052;-80
2023/07/26 12:58:32;;;;;;;2.50;1.65;;;;;;;;;;6253904;28;20052;-81
2023/07/26 13:01:36;;;;;;;3.85;2.10;;;;;;;;;;6249234;28;20040;-81
2023/07/26 13:04:39;;;;;;;2.00;1.77;;;;;;;;;;6249855;28;20621;-81
2023/07/26 13:07:41;;;;;;;2.00;1.80;;;;;;;;;;6218200;28;20124;-81
2023/07/26 13:10:43;;;;;;;3.63;1.70;;;;;;;;;;6252819;28;20044;-81
2023/07/26 13:13:44;;;;;;;4.40;1.73;;;;;;;;;;6252667;28;20056;-80
2023/07/26 13:16:46;;;;;;;2.47;1.90;;;;;;;;;;6254543;28;20109;-80
2023/07/26 13:19:48;;;;;;;2.00;1.73;;;;;;;;;;6257905;28;20051;-79
2023/07/26 13:22:50;;;;;;;2.30;2.10;;;;;;;;;;6253468;28;20076;-81
2023/07/26 13:25:51;;;;;;;1.67;1.37;;;;;;;;;;6244746;28;20049;-79
2023/07/26 13:28:53;;;;;;;2.00;1.60;;;;;;;;;;6239501;28;20538;-79
2023/07/26 13:31:55;;;;;;;2.40;1.75;;;;;;;;;;6269869;28;20049;-78
2023/07/26 13:34:57;;;;;;;4.32;1.90;;;;;;;;;;6261448;28;20499;-80
2023/07/26 13:37:58;;;;;;;3.73;1.83;;;;;;;;;;6255567;28;20591;-80
2023/07/26 13:41:00;;;;;;;2.88;1.80;;;;;;;;;;6254677;28;20506;-80
2023/07/26 13:44:01;;;;;;;2.22;1.67;;;;;;;;;;6251023;28;20049;-78
2023/07/26 13:47:03;;;;;;;2.20;1.80;;;;;;;;;;6257117;28;20514;-81
2023/07/26 13:50:06;;;;;;;3.72;2.35;;;;;;;;;;6257513;28;20057;-80
2023/07/26 13:53:07;;;;;;;3.25;1.75;;;;;;;;;;6245346;28;20044;-79
2023/07/26 13:56:09;;;;;;;23.77;4.13;;;;;;;;;;6258382;28;20748;-79
2023/07/26 13:59:11;;;;;;;1.80;1.70;;;;;;;;;;6248128;28;20037;-80
2023/07/26 14:02:12;;;;;;;1.70;1.60;;;;;;;;;;6271813;28;20071;-80
2023/07/26 14:05:14;;;;;;;3.27;1.77;;;;;;;;;;6241994;28;20056;-80
2023/07/26 14:08:16;;;;;;;3.25;2.40;;;;;;;;;;6273152;28;20053;-79
2023/07/26 14:11:18;;;;;;;3.87;2.03;;;;;;;;;;6272876;28;20052;-80
2023/07/26 14:14:19;;;;;;;1.67;1.57;;;;;;;;;;6277009;28;20063;-79
2023/07/26 14:17:21;;;;;;;1.60;1.42;;;;;;;;;;6260698;28;20028;-79
2023/07/26 14:20:22;;;;;;;2.87;1.70;;;;;;;;;;6275705;28;20049;-79
2023/07/26 14:23:24;;;;;;;1.95;1.48;;;;;;;;;;6256979;28;20654;-79
2023/07/26 14:26:26;;;;;;;2.03;1.60;;;;;;;;;;6258760;28;20053;-80
2023/07/26 14:29:28;;;;;;;2.55;1.65;;;;;;;;;;6277319;28;20053;-80
2023/07/26 14:32:30;;;;;;;1.75;1.42;;;;;;;;;;6278516;28;20052;-79
2023/07/26 14:35:32;;;;;;;1.53;1.23;;;;;;;;;;6280281;28;20210;-79
2023/07/26 14:38:34;;;;;;;2.15;1.45;;;;;;;;;;6268631;28;20037;-80
2023/07/26 14:41:35;;;;;;;1.60;1.42;;;;;;;;;;6279315;28;20033;-79
2023/07/26 14:44:37;;;;;;;1.55;1.45;;;;;;;;;;6275596;28;20045;-79
2023/07/26 14:47:39;;;;;;;2.50;1.63;;;;;;;;;;6278123;28;20052;-79
2023/07/26 14:50:41;;;;;;;2.03;1.45;;;;;;;;;;6276773;28;20076;-79
2023/07/26 14:53:43;;;;;;;3.45;1.50;;;;;;;;;;6265682;28;20044;-80
2023/07/26 14:56:44;;;;;;;2.50;1.60;;;;;;;;;;6273859;28;20051;-79
2023/07/26 15:00:05;;;;;;;2.65;1.77;;;;;;;;;;6274722;28;20060;-79
2023/07/26 15:03:07;;;;;;;3.30;2.22;;;;;;;;;;6278993;28;20041;-78
2023/07/26 15:06:09;;;;;;;1.63;1.53;;;;;;;;;;6283653;28;20041;-78
2023/07/26 15:09:10;;;;;;;2.50;1.65;;;;;;;;;;6263233;28;20041;-78
2023/07/26 15:12:12;;;;;;;2.63;1.80;;;;;;;;;;6276391;28;20085;-79
2023/07/26 15:15:15;;;;;;;4.77;1.90;;;;;;;;;;6276541;28;20037;-79
2023/07/26 15:18:17;;;;;;;3.45;1.70;;;;;;;;;;6275614;28;20111;-79
2023/07/26 15:21:19;;;;;;;1.90;1.60;;;;;;;;;;6272955;28;20045;-80
2023/07/26 15:24:20;;;;;;;2.47;1.70;;;;;;;;;;6257544;28;20049;-80
2023/07/26 15:27:22;;;;;;;3.33;1.80;;;;;;;;;;6231184;28;20045;-80
2023/07/26 15:30:24;;;;;;;2.00;1.45;;;;;;;;;;6257185;28;20088;-79
2023/07/26 15:33:27;;;;;;;2.97;1.70;;;;;;;;;;6244484;28;20045;-80
2023/07/26 15:36:29;;;;;;;4.80;2.55;;;;;;;;;;6255306;28;20048;-79
2023/07/26 15:39:31;;;;;;;2.40;1.60;;;;;;;;;;6259992;28;20056;-80
2023/07/26 15:42:32;;;;;;;15.68;2.88;;;;;;;;;;6256782;28;20041;-79
2023/07/26 15:45:34;;;;;;;2.05;1.73;;;;;;;;;;6242792;28;20075;-81
2023/07/26 15:48:39;;;;;;;2.53;2.10;;;;;;;;;;6257696;28;20557;-81
2023/07/26 15:51:40;;;;;;;2.47;1.90;;;;;;;;;;6249099;28;20048;-80
2023/07/26 15:54:42;;;;;;;2.77;2.20;;;;;;;;;;6255009;28;20045;-81
2023/07/26 15:57:44;;;;;;;2.83;1.87;;;;;;;;;;6256961;28;20586;-79
2023/07/26 16:00:46;;;;;;;1.73;1.63;;;;;;;;;;6238904;28;20041;-78
2023/07/26 16:03:48;;;;;;;3.40;2.20;;;;;;;;;;6258072;28;20048;-78
2023/07/26 16:06:52;;;;;;;2.30;2.10;;;;;;;;;;6247078;28;20061;-77
2023/07/26 16:09:57;;;;;;;3.03;2.33;;;;;;;;;;6242930;28;20045;-79
2023/07/26 16:12:58;;;;;;;3.90;2.42;;;;;;;;;;6249403;28;20684;-80
2023/07/26 16:16:01;;;;;;;4.82;2.40;;;;;;;;;;6250948;28;20045;-78
2023/07/26 16:19:05;;;;;;;4.03;2.13;;;;;;;;;;6252971;28;20507;-79
2023/07/26 16:22:10;;;;;;;4.90;1.83;;;;;;;;;;6249161;28;20050;-80
2023/07/26 16:25:12;;;;;;;3.20;1.80;;;;;;;;;;6255220;28;20041;-78
2023/07/26 16:28:15;;;;;;;3.03;2.08;;;;;;;;;;6246239;28;20053;-79
2023/07/26 16:31:16;;;;;;;2.40;1.80;;;;;;;;;;6255921;28;20714;-79
2023/07/26 16:34:19;;;;;;;3.00;2.00;;;;;;;;;;6255138;28;20040;-79
2023/07/26 16:37:20;;;;;;;3.23;2.10;;;;;;;;;;6231324;28;20060;-79
2023/07/26 16:40:22;;;;;;;3.90;2.10;;;;;;;;;;6228858;28;20044;-79
2023/07/26 16:43:24;;;;;;;2.70;2.30;;;;;;;;;;6250694;28;20056;-79
2023/07/26 16:46:26;;;;;;;3.40;2.38;;;;;;;;;;6232523;28;20049;-78
2023/07/26 16:49:47;;;;;;;4.60;2.30;;;;;;;;;;6247163;28;20570;-80
2023/07/26 16:52:49;;;;;;;2.75;2.08;;;;;;;;;;6245587;28;20056;-81
2023/07/26 16:55:51;;;;;;;3.25;2.13;;;;;;;;;;6240167;28;20053;-80
2023/07/26 16:58:52;;;;;;;3.45;2.17;;;;;;;;;;6252700;28;20419;-78
2023/07/26 17:01:55;;;;;;;3.17;2.30;;;;;;;;;;6246976;28;20069;-80
2023/07/26 17:04:57;;;;;;;3.00;1.92;;;;;;;;;;6239363;28;20048;-79
2023/07/26 17:07:58;;;;;;;2.90;2.10;;;;;;;;;;6254817;28;20053;-78
2023/07/26 17:11:00;;;;;;;4.25;2.28;;;;;;;;;;6263985;28;20060;-78
2023/07/26 17:14:02;;;;;;;2.50;2.13;;;;;;;;;;6274145;28;20505;-79
2023/07/26 17:17:03;;;;;;;3.65;2.60;;;;;;;;;;6261109;28;20044;-80
2023/07/26 17:20:06;;;;;;;3.60;2.67;;;;;;;;;;6260101;28;20573;-78
2023/07/26 17:23:07;;;;;;;2.60;2.10;;;;;;;;;;6242128;28;20049;-80
2023/07/26 17:26:09;;;;;;;4.45;2.90;;;;;;;;;;6239544;28;20045;-79
2023/07/26 17:29:11;;;;;;;3.17;2.40;;;;;;;;;;6255410;28;20079;-78
2023/07/26 17:32:13;;;;;;;5.78;2.88;;;;;;;;;;6254546;28;20049;-80
2023/07/26 17:35:14;;;;;;;4.70;2.55;;;;;;;;;;6232848;28;20077;-79
2023/07/26 17:38:16;;;;;;;3.00;2.22;;;;;;;;;;6255727;28;20073;-79
2023/07/26 17:41:18;;;;;;;3.00;2.70;;;;;;;;;;6253077;28;20045;-79
2023/07/26 17:44:20;;;;;;;3.50;2.53;;;;;;;;;;6256360;28;20102;-80
2023/07/26 17:47:22;;;;;;;3.35;2.47;;;;;;;;;;6214599;28;20041;-78
2023/07/26 17:50:24;;;;;;;2.75;1.83;;;;;;;;;;6243541;28;20051;-80
2023/07/26 17:53:29;;;;;;;3.42;2.22;;;;;;;;;;6252830;28;20632;-81
2023/07/26 17:56:30;;;;;;;2.53;1.85;;;;;;;;;;6223971;28;20041;-78
2023/07/26 17:59:38;;;;;;;1.73;1.43;;;;;;;;;;6222347;28;20045;-80
2023/07/26 18:02:40;;;;;;;2.65;1.90;;;;;;;;;;6253242;28;20064;-78
2023/07/26 18:05:42;;;;;;;3.03;2.45;;;;;;;;;;6250318;28;20041;-78
2023/07/26 18:08:50;;;;;;;2.90;2.20;;;;;;;;;;6255267;28;20052;-80
2023/07/26 18:11:54;;;;;;;3.60;2.10;;;;;;;;;;6248558;28;20482;-78
2023/07/26 18:14:56;;;;;;;3.83;2.05;;;;;;;;;;6222653;28;20045;-78
2023/07/26 18:17:57;;;;;;;3.50;2.08;;;;;;;;;;6249251;28;20191;-77